Latest Coastal Weather Observations for Dunalley

IDT60701

Issued at 1:15 am EDT Sunday 23 November 2014 (issued every 10 minutes, with the page automatically refreshed every 10 minutes)

About coastal observations | Map of coastal stations | Coastal observations for TAS | Marine services | Other Formats
Station Details ID: 094254 Name: DUNALLEY (STROUD POINT) Lat: -42.90 Lon: 147.79 Height: 12.43 m
Data from the previous 72 hours. | See also: Recent months at Dunalley
Date/Time
EDT
Temp

°C
Wind Pressure Rain
since 9am
mm
Weather Cloud Vis
km
Sea
Height
m
Swell
Dir
 
Speed
knots
Gust
knots
hPa Trend Height
m
Period
s
Dir
23/01:00am 13.8 N 0 0 1003.0 - 0.0 - - - - - - -
23/12:30am 14.8 N 3 4 1003.2 - 0.0 - - - - - - -
23/12:00am 14.5 N 3 4 1003.3 - 0.0 - - - - - - -
 
Date/Time
EDT
Temp

°C
Wind Pressure Rain
since 9am
mm
Weather Cloud Vis
km
Sea
Height
m
Swell
Dir
 
Speed
knots
Gust
knots
hPa Trend Height
m
Period
s
Dir
22/11:30pm 14.5 N 4 5 1003.4 - 0.0 - - - - - - -
22/11:00pm 15.4 N 8 9 1003.5 - 0.0 - - - - - - -
22/10:30pm 15.2 N 7 9 1003.7 - 0.0 - - - - - - -
22/10:00pm 14.8 NNW 4 5 1003.9 - 0.0 - - - - - - -
22/09:30pm 16.2 NNW 1 2 1003.8 - 0.0 - - - - - - -
22/09:00pm 15.6 CALM 0 1 1003.7 - 0.0 - - - - - - -
22/08:30pm 16.1 NNW 3 4 1003.9 - 0.0 - - - - - - -
22/08:00pm 16.2 N 4 8 1003.7 - 0.0 - - - - - - -
22/07:30pm 17.0 N 1 2 1003.5 - 0.0 - - - - - - -
22/07:00pm 17.7 N 3 6 1003.5 - 0.0 - - - - - - -
22/06:30pm 18.6 N 2 4 1003.0 - 0.0 - - - - - - -
22/06:00pm 19.4 N 1 3 1003.0 - 0.0 - - - - - - -
22/05:30pm 18.3 N 6 7 1003.1 - 0.0 - - - - - - -
22/05:00pm 21.1 N 3 6 1003.1 - 0.0 - - - - - - -
22/04:30pm 22.4 N 5 8 1003.1 - 0.0 - - - - - - -
22/04:00pm 21.8 N 6 9 1003.0 - 0.0 - - - - - - -
22/03:30pm 20.0 NNE 6 9 1003.7 - 0.0 - - - - - - -
22/03:00pm 19.6 NE 7 9 1004.1 - 0.0 - - - - - - -
22/02:30pm 19.7 ENE 8 10 1004.5 - 0.0 - - - - - - -
22/02:00pm 20.1 NE 8 11 1004.7 - 0.0 - - - - - - -
22/01:30pm 18.5 NE 10 12 1005.1 - 0.0 - - - - - - -
22/01:00pm 16.6 NE 11 14 1005.7 - 0.0 - - - - - - -
22/12:30pm 16.4 NE 16 19 1005.7 - 0.0 - - - - - - -
22/12:00pm 18.3 ENE 15 18 1005.8 - 0.0 - - - - - - -
22/11:30am 17.7 NE 14 17 1006.0 - 0.0 - - - - - - -
22/11:00am 16.4 NE 11 16 1006.3 - 0.0 - - - - - - -
22/10:30am 16.3 NE 11 13 1006.4 - 0.0 - - - - - - -
22/10:00am 15.2 NE 11 14 1006.9 - 0.0 - - - - - - -
22/09:30am 16.0 N 4 6 1007.2 - 0.0 - - - - - - -
22/09:00am 15.0 N 5 7 1007.5 - 0.8 - - - - - - -
22/08:30am 14.7 NNE 8 11 1007.5 - 0.8 - - - - - - -
22/08:00am 14.3 NE 6 10 1007.6 - 0.8 - - - - - - -
22/07:30am 13.9 NE 1 4 1007.3 - 0.8 - - - - - - -
22/07:00am 13.7 ENE 7 12 1006.9 - 0.8 - - - - - - -
22/06:30am 13.7 NE 2 7 1007.1 - 0.8 - - - - - - -
22/06:00am 12.6 ENE 7 10 1006.6 - 0.8 - - - - - - -
22/05:30am 12.1 ENE 11 15 1006.5 - 0.8 - - - - - - -
22/05:00am 12.1 ENE 14 18 1006.3 - 0.8 - - - - - - -
22/04:30am 11.8 ENE 10 13 1006.8 - 0.8 - - - - - - -
22/04:00am 11.6 ENE 10 14 1006.9 - 0.8 - - - - - - -
22/03:30am 11.9 ENE 10 14 1007.3 - 0.8 - - - - - - -
22/03:00am 11.4 NE 9 13 1007.6 - 0.8 - - - - - - -
22/02:30am 11.4 NE 11 15 1007.8 - 0.8 - - - - - - -
22/02:00am 11.5 ENE 14 17 1007.9 - 0.8 - - - - - - -
22/01:30am 11.0 NE 12 14 1008.6 - 0.8 - - - - - - -
22/01:00am 11.3 NE 13 16 1009.1 - 0.8 - - - - - - -
22/12:30am 11.2 NE 13 16 1009.7 - 0.8 - - - - - - -
22/12:00am 11.3 NE 13 17 1009.6 - 0.8 - - - - - - -
 
Date/Time
EDT
Temp

°C
Wind Pressure Rain
since 9am
mm
Weather Cloud Vis
km
Sea
Height
m
Swell
Dir
 
Speed
knots
Gust
knots
hPa Trend Height
m
Period
s
Dir
21/11:30pm 10.4 SE 4 5 1010.5 - 0.8 - - - - - - -
21/11:00pm 10.1 SE 5 7 1010.5 - 0.8 - - - - - - -
21/10:30pm 9.1 SE 4 4 1010.8 - 0.8 - - - - - - -
21/10:00pm 9.8 SE 3 4 1010.6 - 0.8 - - - - - - -
21/09:30pm 11.0 SE 4 6 1010.3 - 0.8 - - - - - - -
21/09:00pm 11.6 SSE 7 10 1009.9 - 0.8 - - - - - - -
21/08:30pm 12.1 SSE 7 10 1009.6 - 0.8 - - - - - - -
21/08:00pm 12.6 S 4 5 1009.3 - 0.8 - - - - - - -
21/07:30pm 13.3 S 7 8 1008.6 - 0.8 - - - - - - -
21/07:00pm 14.0 S 6 8 1008.2 - 0.8 - - - - - - -
21/06:30pm 14.0 SSW 9 11 1007.9 - 0.8 - - - - - - -
21/06:00pm 14.2 S 7 11 1007.6 - 0.8 - - - - - - -
21/05:30pm 13.2 S 12 16 1007.3 - 0.8 - - - - - - -
21/05:00pm 13.5 S 10 12 1007.1 - 0.8 - - - - - - -
21/04:30pm 14.2 S 12 14 1006.9 - 0.8 - - - - - - -
21/04:00pm 13.3 S 12 15 1006.8 - 0.8 - - - - - - -
21/03:30pm 13.3 S 13 15 1006.8 - 0.8 - - - - - - -
21/03:00pm 13.3 SSW 12 15 1006.7 - 0.8 - - - - - - -
21/02:30pm 12.4 SW 10 16 1006.6 - 0.8 - - - - - - -
21/02:00pm 12.7 SSW 11 17 1006.3 - 0.8 - - - - - - -
21/01:30pm 12.3 SSW 14 19 1006.1 - 0.8 - - - - - - -
21/01:00pm 11.5 SSW 19 23 1006.1 - 0.8 - - - - - - -
21/12:30pm 12.0 SSW 14 19 1005.6 - 0.8 - - - - - - -
21/12:00pm 11.6 SSW 17 20 1005.4 - 0.6 Recent precip. - - - - - -
21/11:30am 12.3 SW 16 19 1005.2 - 0.2 - - - - - - -
21/11:00am 12.4 SW 16 19 1004.5 - 0.0 - - - - - - -
21/10:30am 12.8 SSW 15 17 1004.1 - 0.0 - - - - - - -
21/10:00am 12.9 SSW 15 18 1003.9 - 0.0 - - - - - - -
21/09:30am 12.8 SW 12 15 1003.5 - 0.0 - - - - - - -
21/09:00am 12.4 SSW 6 8 1003.3 - 3.6 Rain - - - - - -
21/08:30am 12.5 SW 6 8 1002.7 - 2.0 - - - - - - -
21/08:00am 13.0 SSW 9 10 1002.3 - 1.0 - - - - - - -
21/07:30am 13.3 S 8 11 1001.9 - 1.0 - - - - - - -
21/07:00am 13.1 SSW 11 14 1001.3 - 1.0 - - - - - - -
21/06:30am 13.3 SSW 11 13 1001.0 - 1.0 - - - - - - -
21/06:00am 13.7 SSW 10 13 1000.5 - 1.0 - - - - - - -
21/05:30am 13.6 SE 8 10 1000.1 - 1.0 - - - - - - -
21/05:00am 13.8 NNE 7 8 999.8 - 1.0 - - - - - - -
21/04:30am 13.6 NNE 2 4 999.2 - 1.0 - - - - - - -
21/04:00am 13.8 NNE 3 5 999.4 - 1.0 - - - - - - -
21/03:30am 13.7 NNE 4 5 999.5 - 1.0 - - - - - - -
21/03:00am 13.7 NNE 5 6 999.5 - 1.0 - - - - - - -
21/02:30am 13.1 NNE 3 3 999.3 - 1.0 - - - - - - -
21/02:00am 12.9 NNE 4 5 999.5 - 1.0 - - - - - - -
21/01:30am 13.4 NNE 3 3 999.4 - 1.0 - - - - - - -
21/01:00am 13.8 NNE 2 4 999.6 - 1.0 - - - - - - -
21/12:30am 13.7 NNE 4 6 999.8 - 1.0 - - - - - - -
21/12:00am 14.2 NNE 6 7 1000.0 - 1.0 - - - - - - -
 
Date/Time
EDT
Temp

°C
Wind Pressure Rain
since 9am
mm
Weather Cloud Vis
km
Sea
Height
m
Swell
Dir
 
Speed
knots
Gust
knots
hPa Trend Height
m
Period
s
Dir
20/11:30pm 14.2 NNE 4 7 1000.1 - 1.0 - - - - - - -
20/11:00pm 14.3 NNE 4 6 1000.0 - 1.0 - - - - - - -
20/10:30pm 14.2 NNE 2 3 1000.0 - 0.8 - - - - - - -
20/10:00pm 14.4 NNE 3 5 1000.0 - 0.8 - - - - - - -
20/09:30pm 14.6 NNE 5 7 1000.5 - 0.8 - - - - - - -
20/09:00pm 14.6 NNE 8 10 1000.3 - 0.8 - - - - - - -
20/08:30pm 14.7 NNE 8 10 1000.0 - 0.8 - - - - - - -
20/08:00pm 14.8 NNE 10 13 1000.2 - 0.8 - - - - - - -
20/07:30pm 14.6 NE 6 9 1000.4 - 0.8 - - - - - - -
20/07:00pm 14.6 NE 5 7 1001.0 - 0.8 - - - - - - -
20/06:30pm 14.6 NE 7 8 1000.7 - 0.8 - - - - - - -
20/06:00pm 14.7 NE 4 5 1001.0 - 0.8 Recent precip. - - - - - -
20/05:30pm 15.0 NE 7 9 1001.3 - 0.6 - - - - - - -
20/05:00pm 16.0 NE 6 8 1001.0 - 0.2 - - - - - - -
20/04:30pm 16.2 NE 8 10 1001.4 - 0.2 - - - - - - -
20/04:00pm 16.1 NE 11 13 1001.0 - 0.2 - - - - - - -
20/03:30pm 15.9 ENE 11 16 1001.7 - 0.2 - - - - - - -
20/03:00pm 16.0 NE 13 15 1002.0 - 0.2 - - - - - - -
20/02:30pm 15.8 NE 16 19 1001.9 - 0.2 - - - - - - -
20/02:00pm 15.7 NE 12 16 1003.2 - 0.2 - - - - - - -
20/01:30pm 15.5 NE 11 13 1003.4 - 0.2 - - - - - - -
20/01:00pm 15.1 ENE 13 15 1004.1 - 0.2 - - - - - - -
20/12:30pm 15.2 NE 12 15 1004.4 - 0.0 - - - - - - -
20/12:00pm 15.7 ENE 12 15 1004.3 - 0.0 - - - - - - -
20/11:30am 15.6 N 10 11 1004.6 - 0.0 - - - - - - -
20/11:00am 15.7 WNW 6 8 1004.9 - 0.0 - - - - - - -
20/10:30am 15.9 WNW 4 6 1004.8 - 0.0 - - - - - - -
20/10:00am 15.8 W 7 10 1005.1 - 0.0 - - - - - - -
20/09:30am 15.7 W 6 9 1005.4 - 0.0 - - - - - - -
20/09:00am 15.8 W 6 8 1005.7 - 0.0 - - - - - - -
20/08:30am 15.8 W 6 8 1005.9 - 0.0 - - - - - - -
20/08:00am 15.0 W 3 5 1006.1 - 0.0 - - - - - - -
20/07:30am 14.6 W 5 7 1005.9 - 0.0 - - - - - - -
20/07:00am 14.4 W 4 5 1006.0 - 0.0 - - - - - - -
20/06:30am 14.2 W 1 4 1005.9 - 0.0 - - - - - - -
20/06:00am 14.6 W 4 5 1005.0 - 0.0 - - - - - - -
20/05:30am 14.5 W 3 4 1005.3 - 0.0 - - - - - - -
20/05:00am 14.5 W 3 7 1005.1 - 0.0 - - - - - - -
20/04:30am 14.6 W 3 6 1005.0 - 0.0 - - - - - - -
20/04:00am 14.9 W 1 2 1005.2 - 0.0 - - - - - - -
20/03:30am 14.4 W 5 8 1005.4 - 0.0 - - - - - - -
20/03:00am 14.3 W 1 2 1005.8 - 0.0 - - - - - - -
20/02:30am 14.9 W 3 5 1005.7 - 0.0 - - - - - - -
20/02:00am 13.4 CALM 0 3 1005.9 - 0.0 - - - - - - -
20/01:30am 13.1 W 1 2 1006.3 - 0.0 - - - - - - -

Other Formats:

Comma delimited format used in spreadsheet applications
http://www.bom.gov.au/fwo/IDT60701/IDT60701.94951.axf

JavaScript Object Notation format (JSON) in row-major order
http://www.bom.gov.au/fwo/IDT60701/IDT60701.94951.json